createdAt,value
2018-07-21T00:00:40.875Z,22.24
2018-07-21T00:01:41.444Z,22.20
2018-07-21T00:02:42.012Z,22.14
2018-07-21T00:03:42.589Z,22.13
2018-07-21T00:04:43.136Z,22.11
2018-07-21T00:05:43.689Z,22.10
2018-07-21T00:06:44.242Z,22.05
2018-07-21T00:07:44.796Z,21.96
2018-07-21T00:08:45.362Z,21.95
2018-07-21T00:09:45.915Z,21.85
2018-07-21T00:10:46.470Z,21.85
2018-07-21T00:11:47.020Z,21.86
2018-07-21T00:12:47.576Z,21.92
2018-07-21T00:13:48.130Z,21.77
2018-07-21T00:14:48.691Z,21.72
2018-07-21T00:15:49.241Z,21.70
2018-07-21T00:16:49.797Z,21.64
2018-07-21T00:17:50.356Z,21.67
2018-07-21T00:18:50.904Z,21.57
2018-07-21T00:19:51.456Z,21.62
2018-07-21T00:20:52.004Z,21.61
2018-07-21T00:21:52.565Z,21.47
2018-07-21T00:22:53.124Z,21.43
2018-07-21T00:23:53.678Z,21.39
2018-07-21T00:24:54.227Z,21.25
2018-07-21T00:25:54.780Z,21.28
2018-07-21T00:26:55.336Z,21.28
2018-07-21T00:27:55.891Z,21.21
2018-07-21T00:28:56.450Z,21.17
2018-07-21T00:29:57.006Z,21.17
2018-07-21T00:30:57.556Z,21.09
2018-07-21T00:31:58.116Z,21.07
2018-07-21T00:32:58.674Z,20.99
2018-07-21T00:33:59.223Z,20.96
2018-07-21T00:34:59.775Z,20.87
2018-07-21T00:36:00.335Z,20.96
2018-07-21T00:37:00.887Z,20.85
2018-07-21T00:38:01.446Z,20.87
2018-07-21T00:39:02.007Z,20.85
2018-07-21T00:40:02.563Z,20.85
2018-07-21T00:41:03.117Z,20.87
2018-07-21T00:42:03.676Z,20.82
2018-07-21T00:43:04.229Z,20.87
2018-07-21T00:44:04.787Z,20.81
2018-07-21T00:45:05.344Z,20.80
2018-07-21T00:46:05.898Z,20.80
2018-07-21T00:47:06.454Z,20.78
2018-07-21T00:48:07.012Z,20.82
2018-07-21T00:49:07.567Z,20.92
2018-07-21T00:50:08.124Z,20.85
2018-07-21T00:51:08.683Z,20.95
2018-07-21T00:52:09.239Z,20.90
2018-07-21T00:53:09.791Z,20.90
2018-07-21T00:54:10.346Z,20.92
2018-07-21T00:55:10.897Z,20.87
2018-07-21T00:56:11.451Z,20.88
2018-07-21T00:57:12.018Z,20.95
2018-07-21T00:58:12.557Z,20.85
2018-07-21T00:59:13.110Z,20.95
2018-07-21T01:00:13.668Z,20.98
2018-07-21T01:01:14.224Z,20.98
2018-07-21T01:02:14.778Z,20.87
2018-07-21T01:03:15.333Z,20.85
2018-07-21T01:04:15.886Z,20.80
2018-07-21T01:05:16.439Z,20.77
2018-07-21T01:06:16.990Z,20.80
2018-07-21T01:07:17.551Z,20.78
2018-07-21T01:08:18.106Z,20.72
2018-07-21T01:09:18.651Z,20.81
2018-07-21T01:10:19.202Z,20.77
2018-07-21T01:11:19.760Z,20.70
2018-07-21T01:12:20.312Z,20.70
2018-07-21T01:13:20.871Z,20.66
2018-07-21T01:14:21.448Z,20.66
2018-07-21T01:15:21.984Z,20.62
2018-07-21T01:16:22.538Z,20.60
2018-07-21T01:17:23.088Z,20.60
2018-07-21T01:18:23.632Z,20.57
2018-07-21T01:19:24.206Z,20.54
2018-07-21T01:20:24.763Z,20.52
2018-07-21T01:21:25.318Z,20.59
2018-07-21T01:22:25.867Z,20.52
2018-07-21T01:23:26.421Z,20.55
2018-07-21T01:24:26.981Z,20.50
2018-07-21T01:25:27.538Z,20.43
2018-07-21T01:26:28.093Z,20.42
2018-07-21T01:27:28.648Z,20.40
2018-07-21T01:28:29.205Z,20.36
2018-07-21T01:29:29.762Z,20.36
2018-07-21T01:30:30.320Z,20.39
2018-07-21T01:31:30.877Z,20.35
2018-07-21T01:32:31.439Z,20.35
2018-07-21T01:33:31.989Z,20.19
2018-07-21T01:34:32.545Z,20.29
2018-07-21T01:35:33.104Z,20.22
2018-07-21T01:36:33.670Z,20.21
2018-07-21T01:37:34.228Z,20.34
2018-07-21T01:38:34.784Z,20.22
2018-07-21T01:39:35.346Z,20.13
2018-07-21T01:40:35.892Z,20.26
2018-07-21T01:41:36.451Z,20.11
2018-07-21T01:42:37.004Z,20.13
2018-07-21T01:43:37.553Z,20.10
2018-07-21T01:44:38.110Z,20.04
2018-07-21T01:45:38.673Z,20.06
2018-07-21T01:46:39.220Z,19.87
2018-07-21T01:47:39.777Z,19.91
2018-07-21T01:48:40.338Z,19.89
2018-07-21T01:49:40.894Z,19.87
2018-07-21T01:50:41.452Z,19.87
2018-07-21T01:51:42.009Z,19.88
2018-07-21T01:52:42.561Z,19.79
2018-07-21T01:53:43.105Z,19.85
2018-07-21T01:54:43.661Z,19.80
2018-07-21T01:55:44.210Z,19.71
2018-07-21T01:56:44.797Z,19.70
2018-07-21T01:57:45.326Z,19.71
2018-07-21T01:58:45.881Z,19.70
2018-07-21T01:59:46.435Z,19.77
2018-07-21T02:00:46.986Z,19.76
2018-07-21T02:01:47.536Z,19.70
2018-07-21T02:02:48.147Z,19.79
2018-07-21T02:03:48.697Z,19.73
2018-07-21T02:04:49.323Z,19.81
2018-07-21T02:05:49.916Z,19.70
2018-07-21T02:06:50.477Z,19.71
2018-07-21T02:07:51.030Z,19.70
2018-07-21T02:08:51.590Z,19.76
2018-07-21T02:09:52.153Z,19.74
2018-07-21T02:10:52.687Z,19.70
2018-07-21T02:11:53.240Z,19.67
2018-07-21T02:12:53.794Z,19.69
2018-07-21T02:13:54.348Z,19.67
2018-07-21T02:14:54.903Z,19.71
2018-07-21T02:15:55.462Z,19.73
2018-07-21T02:16:56.019Z,19.67
2018-07-21T02:17:56.576Z,19.58
2018-07-21T02:18:57.134Z,19.58
2018-07-21T02:19:57.685Z,19.52
2018-07-21T02:20:58.237Z,19.58
2018-07-21T02:21:58.789Z,19.49
2018-07-21T02:22:59.346Z,19.48
2018-07-21T02:23:59.904Z,19.51
2018-07-21T02:25:00.463Z,19.44
2018-07-21T02:26:01.016Z,19.47
2018-07-21T02:27:01.574Z,19.49
2018-07-21T02:28:02.129Z,19.48
2018-07-21T02:29:02.681Z,19.41
2018-07-21T02:30:03.270Z,19.36
2018-07-21T02:31:03.801Z,19.34
2018-07-21T02:32:04.348Z,19.29
2018-07-21T02:33:04.907Z,19.25
2018-07-21T02:34:05.459Z,19.31
2018-07-21T02:35:06.013Z,19.31
2018-07-21T02:36:06.570Z,19.22
2018-07-21T02:37:07.125Z,19.25
2018-07-21T02:38:07.678Z,19.21
2018-07-21T02:39:08.238Z,19.15
2018-07-21T02:40:08.782Z,19.21
2018-07-21T02:41:09.338Z,19.15
2018-07-21T02:42:09.892Z,19.15
2018-07-21T02:43:10.445Z,19.19
2018-07-21T02:44:11.005Z,19.21
2018-07-21T02:45:11.549Z,19.29
2018-07-21T02:46:12.105Z,19.18
2018-07-21T02:47:12.662Z,19.18
2018-07-21T02:48:13.216Z,19.16
2018-07-21T02:49:13.770Z,19.14
2018-07-21T02:50:14.323Z,19.15
2018-07-21T02:51:14.875Z,19.25
2018-07-21T02:52:15.430Z,19.16
2018-07-21T02:53:15.985Z,19.15
2018-07-21T02:54:16.549Z,19.14
2018-07-21T02:55:17.102Z,19.18
2018-07-21T02:56:17.658Z,19.21
2018-07-21T02:57:18.207Z,19.15
2018-07-21T02:58:18.767Z,19.11
2018-07-21T02:59:19.321Z,19.15
2018-07-21T03:00:19.876Z,19.15
2018-07-21T03:01:20.429Z,19.16
2018-07-21T03:02:20.984Z,19.07
2018-07-21T03:03:21.539Z,19.00
2018-07-21T03:04:22.101Z,19.00
2018-07-21T03:05:22.651Z,19.15
2018-07-21T03:06:23.210Z,19.07
2018-07-21T03:07:23.767Z,19.04
2018-07-21T03:08:24.328Z,19.00
2018-07-21T03:09:24.886Z,19.02
2018-07-21T03:10:25.442Z,19.00
2018-07-21T03:11:25.993Z,19.02
2018-07-21T03:12:26.577Z,19.12
2018-07-21T03:13:27.107Z,19.15
2018-07-21T03:14:27.659Z,19.11
2018-07-21T03:15:28.213Z,19.04
2018-07-21T03:16:28.768Z,19.07
2018-07-21T03:17:29.317Z,19.00
2018-07-21T03:18:29.874Z,19.04
2018-07-21T03:19:30.431Z,19.00
2018-07-21T03:20:31.008Z,19.02
2018-07-21T03:21:31.557Z,19.04
2018-07-21T03:22:32.113Z,19.02
2018-07-21T03:23:32.671Z,19.04
2018-07-21T03:24:33.229Z,19.02
2018-07-21T03:25:33.786Z,19.06
2018-07-21T03:26:34.330Z,19.06
2018-07-21T03:27:34.887Z,18.98
2018-07-21T03:28:35.444Z,19.04
2018-07-21T03:29:36.001Z,19.06
2018-07-21T03:30:36.570Z,19.00
2018-07-21T03:31:37.108Z,18.95
2018-07-21T03:32:37.662Z,19.00
2018-07-21T03:33:38.221Z,19.15
2018-07-21T03:34:38.774Z,19.12
2018-07-21T03:35:39.353Z,19.09
2018-07-21T03:36:39.934Z,19.09
2018-07-21T03:37:40.493Z,19.09
2018-07-21T03:38:41.093Z,19.04
2018-07-21T03:39:41.681Z,19.09
2018-07-21T03:40:42.212Z,19.07
2018-07-21T03:41:42.787Z,19.15
2018-07-21T03:42:43.340Z,19.15
2018-07-21T03:43:43.955Z,19.14
2018-07-21T03:44:44.519Z,19.16
2018-07-21T03:45:45.131Z,19.15
2018-07-21T03:46:45.722Z,19.18
2018-07-21T03:47:46.275Z,19.24
2018-07-21T03:48:46.890Z,19.21
2018-07-21T03:49:47.385Z,19.15
2018-07-21T03:50:47.946Z,19.14
2018-07-21T03:51:48.504Z,19.18
2018-07-21T03:52:49.064Z,19.15
2018-07-21T03:53:49.622Z,19.16
2018-07-21T03:54:50.185Z,19.18
2018-07-21T03:55:50.741Z,19.09
2018-07-21T03:56:51.298Z,19.12
2018-07-21T03:57:51.859Z,19.04
2018-07-21T03:58:52.419Z,18.92
2018-07-21T03:59:52.973Z,18.95
2018-07-21T04:00:53.532Z,18.90
2018-07-21T04:01:54.145Z,18.81
2018-07-21T04:02:54.703Z,18.68
2018-07-21T04:03:55.225Z,18.66
2018-07-21T04:04:55.801Z,18.73
2018-07-21T04:05:56.354Z,18.75
2018-07-21T04:06:56.958Z,18.73
2018-07-21T04:07:57.548Z,18.69
2018-07-21T04:08:58.130Z,18.58
2018-07-21T04:09:58.669Z,18.62
2018-07-21T04:10:59.210Z,18.58
2018-07-21T04:11:59.764Z,18.56
2018-07-21T04:13:00.321Z,18.53
2018-07-21T04:14:00.882Z,18.53
2018-07-21T04:15:01.445Z,18.56
2018-07-21T04:16:02.000Z,18.44
2018-07-21T04:17:02.562Z,18.37
2018-07-21T04:18:03.123Z,18.26
2018-07-21T04:19:03.707Z,18.23
2018-07-21T04:20:04.240Z,18.20
2018-07-21T04:21:04.803Z,18.29
2018-07-21T04:22:05.359Z,18.23
2018-07-21T04:23:05.913Z,18.25
2018-07-21T04:24:06.536Z,18.30
2018-07-21T04:25:07.054Z,18.35
2018-07-21T04:26:07.606Z,18.35
2018-07-21T04:27:08.159Z,18.44
2018-07-21T04:28:08.720Z,18.34
2018-07-21T04:29:09.279Z,18.29
2018-07-21T04:30:09.840Z,18.29
2018-07-21T04:31:10.401Z,18.34
2018-07-21T04:32:10.962Z,18.35
2018-07-21T04:33:11.522Z,18.41
2018-07-21T04:34:12.075Z,18.45
2018-07-21T04:35:12.640Z,18.50
2018-07-21T04:36:13.197Z,18.56
2018-07-21T04:37:13.753Z,18.58
2018-07-21T04:38:14.311Z,18.50
2018-07-21T04:39:14.870Z,18.58
2018-07-21T04:40:15.425Z,18.58
2018-07-21T04:41:15.988Z,18.56
2018-07-21T04:42:16.550Z,18.56
2018-07-21T04:43:17.111Z,18.58
2018-07-21T04:44:17.667Z,18.56
2018-07-21T04:45:18.234Z,18.53
2018-07-21T04:46:18.784Z,18.56
2018-07-21T04:47:19.335Z,18.73
2018-07-21T04:48:19.886Z,18.69
2018-07-21T04:49:20.448Z,18.77
2018-07-21T04:50:21.013Z,18.92
2018-07-21T04:51:21.574Z,18.99
2018-07-21T04:52:22.143Z,18.92
2018-07-21T04:53:22.707Z,18.99
2018-07-21T04:54:23.250Z,19.04
2018-07-21T04:55:23.812Z,18.98
2018-07-21T04:56:24.397Z,19.14
2018-07-21T04:57:24.972Z,19.07
2018-07-21T04:58:25.518Z,19.15
2018-07-21T04:59:26.083Z,19.21
2018-07-21T05:00:26.643Z,19.30
2018-07-21T05:01:27.216Z,19.25
2018-07-21T05:02:27.777Z,19.33
2018-07-21T05:03:28.382Z,19.51
2018-07-21T05:04:28.927Z,19.61
2018-07-21T05:05:29.497Z,19.71
2018-07-21T05:06:30.063Z,19.71
2018-07-21T05:07:30.684Z,19.76
2018-07-21T05:08:31.228Z,19.87
2018-07-21T05:09:31.859Z,19.92
2018-07-21T05:10:32.391Z,19.98
2018-07-21T05:11:32.958Z,20.28
2018-07-21T05:12:33.522Z,20.52
2018-07-21T05:13:34.077Z,20.81
2018-07-21T05:14:34.635Z,20.95
2018-07-21T05:15:35.193Z,20.98
2018-07-21T05:16:35.770Z,21.18
2018-07-21T05:17:36.337Z,21.40
2018-07-21T05:18:36.906Z,21.49
2018-07-21T05:19:37.465Z,21.51
2018-07-21T05:20:38.044Z,21.55
2018-07-21T05:21:38.610Z,21.60
2018-07-21T05:22:39.185Z,21.64
2018-07-21T05:23:39.740Z,21.58
2018-07-21T05:24:40.294Z,21.65
2018-07-21T05:25:40.857Z,21.65
2018-07-21T05:26:41.425Z,21.65
2018-07-21T05:27:41.987Z,21.64
2018-07-21T05:28:42.544Z,21.60
2018-07-21T05:29:43.099Z,21.62
2018-07-21T05:30:43.661Z,21.60
2018-07-21T05:31:44.227Z,21.82
2018-07-21T05:32:44.783Z,21.95
2018-07-21T05:33:45.340Z,22.21
2018-07-21T05:34:45.907Z,22.54
2018-07-21T05:35:46.472Z,22.68
2018-07-21T05:36:47.037Z,22.69
2018-07-21T05:37:47.597Z,22.93
2018-07-21T05:38:48.160Z,23.15
2018-07-21T05:39:48.729Z,23.65
2018-07-21T05:40:49.293Z,24.18
2018-07-21T05:41:49.868Z,24.57
2018-07-21T05:42:50.425Z,24.80
2018-07-21T05:43:51.003Z,24.96
2018-07-21T05:44:51.567Z,25.35
2018-07-21T05:45:52.137Z,25.66
2018-07-21T05:46:52.716Z,25.87
2018-07-21T05:47:53.285Z,25.93
2018-07-21T05:48:53.843Z,25.93
2018-07-21T05:49:54.417Z,25.75
2018-07-21T05:50:54.977Z,25.54
2018-07-21T05:51:55.546Z,25.29
2018-07-21T05:52:56.114Z,25.18
2018-07-21T05:53:56.681Z,25.25
2018-07-21T05:54:57.244Z,25.44
2018-07-21T05:55:57.814Z,25.86
2018-07-21T05:56:58.379Z,26.39
2018-07-21T05:57:58.958Z,26.62
2018-07-21T05:58:59.528Z,26.56
2018-07-21T06:00:00.101Z,26.73
2018-07-21T06:01:00.668Z,27.03
2018-07-21T06:02:01.230Z,27.35
2018-07-21T06:03:01.863Z,27.51
2018-07-21T06:04:02.367Z,27.37
2018-07-21T06:05:02.938Z,27.13
2018-07-21T06:06:03.512Z,26.99
2018-07-21T06:07:04.078Z,26.99
2018-07-21T06:08:04.653Z,26.87
2018-07-21T06:09:05.226Z,26.61
2018-07-21T06:10:05.798Z,26.34
2018-07-21T06:11:06.424Z,26.21
2018-07-21T06:12:06.934Z,25.86
2018-07-21T06:13:07.499Z,25.65
2018-07-21T06:14:08.069Z,25.56
2018-07-21T06:15:08.641Z,25.31
2018-07-21T06:16:09.207Z,25.17
2018-07-21T06:17:09.778Z,24.96
2018-07-21T06:18:10.349Z,24.84
2018-07-21T06:19:10.924Z,24.51
2018-07-21T06:20:11.494Z,24.45
2018-07-21T06:21:12.050Z,24.36
2018-07-21T06:22:12.622Z,24.31
2018-07-21T06:23:13.192Z,24.33
2018-07-21T06:24:13.761Z,24.31
2018-07-21T06:25:14.422Z,24.14
2018-07-21T06:26:14.896Z,24.14
2018-07-21T06:27:15.463Z,23.96
2018-07-21T06:28:16.028Z,23.95
2018-07-21T06:29:16.596Z,23.98
2018-07-21T06:30:17.164Z,23.79
2018-07-21T06:31:17.732Z,23.69
2018-07-21T06:32:18.300Z,23.56
2018-07-21T06:33:18.862Z,23.31
2018-07-21T06:34:19.425Z,23.34
2018-07-21T06:35:19.984Z,23.43
2018-07-21T06:36:20.548Z,23.39
2018-07-21T06:37:21.113Z,23.31
2018-07-21T06:38:21.683Z,23.25
2018-07-21T06:39:22.256Z,23.18
2018-07-21T06:40:22.825Z,23.24
2018-07-21T06:41:23.389Z,23.32
2018-07-21T06:42:23.949Z,23.53
2018-07-21T06:43:24.515Z,23.56
2018-07-21T06:44:25.074Z,23.64
2018-07-21T06:45:25.635Z,23.81
2018-07-21T06:46:26.198Z,23.80
2018-07-21T06:47:26.763Z,23.96
2018-07-21T06:48:27.333Z,23.91
2018-07-21T06:49:27.902Z,24.03
2018-07-21T06:50:28.468Z,24.06
2018-07-21T06:51:29.037Z,24.24
2018-07-21T06:52:29.599Z,24.17
2018-07-21T06:53:30.171Z,24.28
2018-07-21T06:54:30.786Z,24.24
2018-07-21T06:55:31.298Z,24.18
2018-07-21T06:56:31.860Z,24.13
2018-07-21T06:57:32.417Z,24.21
2018-07-21T06:58:32.994Z,24.26
2018-07-21T06:59:33.551Z,24.38
2018-07-21T07:00:34.137Z,24.36
2018-07-21T07:01:34.689Z,24.45
2018-07-21T07:02:35.257Z,24.43
2018-07-21T07:03:35.824Z,24.61
2018-07-21T07:04:36.397Z,24.70
2018-07-21T07:05:36.963Z,24.77
2018-07-21T07:06:37.523Z,24.84
2018-07-21T07:07:38.085Z,24.79
2018-07-21T07:08:38.652Z,24.73
2018-07-21T07:09:39.220Z,24.74
2018-07-21T07:10:39.790Z,24.58
2018-07-21T07:11:40.360Z,24.73
2018-07-21T07:12:40.920Z,24.80
2018-07-21T07:13:41.488Z,24.81
2018-07-21T07:14:42.051Z,24.94
2018-07-21T07:15:42.616Z,24.84
2018-07-21T07:16:43.182Z,24.91
2018-07-21T07:17:43.755Z,24.96
2018-07-21T07:18:44.320Z,24.96
2018-07-21T07:19:44.886Z,25.04
2018-07-21T07:20:45.459Z,24.99
2018-07-21T07:21:46.027Z,25.02
2018-07-21T07:22:46.593Z,25.18
2018-07-21T07:23:47.161Z,25.06
2018-07-21T07:24:47.724Z,25.07
2018-07-21T07:25:48.292Z,25.13
2018-07-21T07:26:48.859Z,25.36
2018-07-21T07:27:49.448Z,25.36
2018-07-21T07:28:50.013Z,25.57
2018-07-21T07:29:50.582Z,25.71
2018-07-21T07:30:51.153Z,25.80
2018-07-21T07:31:51.722Z,25.99
2018-07-21T07:32:52.295Z,26.03
2018-07-21T07:33:52.863Z,26.18
2018-07-21T07:34:53.435Z,26.28
2018-07-21T07:35:53.999Z,26.24
2018-07-21T07:36:54.561Z,26.51
2018-07-21T07:37:55.132Z,26.50
2018-07-21T07:38:55.701Z,26.63
2018-07-21T07:39:56.270Z,26.74
2018-07-21T07:40:56.841Z,26.84
2018-07-21T07:41:57.413Z,26.88
2018-07-21T07:42:57.980Z,26.93
2018-07-21T07:43:58.554Z,26.99
2018-07-21T07:44:59.151Z,27.23
2018-07-21T07:45:59.694Z,27.42
2018-07-21T07:47:00.264Z,27.54
2018-07-21T07:48:00.837Z,27.62
2018-07-21T07:49:01.411Z,27.73
2018-07-21T07:50:01.986Z,27.89
2018-07-21T07:51:02.552Z,28.25
2018-07-21T07:52:03.127Z,28.44
2018-07-21T07:53:03.700Z,28.63
2018-07-21T07:54:04.273Z,28.81
2018-07-21T07:55:04.839Z,28.82
2018-07-21T07:56:05.416Z,29.01
2018-07-21T07:57:05.987Z,29.25
2018-07-21T07:58:06.563Z,29.56
2018-07-21T07:59:07.137Z,29.82
2018-07-21T08:00:07.713Z,29.91
2018-07-21T08:01:08.329Z,30.05
2018-07-21T08:02:08.859Z,30.30
2018-07-21T08:03:09.453Z,30.54
2018-07-21T08:04:10.025Z,30.69
2018-07-21T08:05:10.602Z,31.10
2018-07-21T08:06:11.175Z,31.67
2018-07-21T08:07:11.750Z,31.88
2018-07-21T08:08:12.330Z,32.25
2018-07-21T08:09:12.904Z,32.27
2018-07-21T08:10:13.480Z,32.37
2018-07-21T08:11:14.057Z,32.59
2018-07-21T08:12:14.629Z,32.88
2018-07-21T08:13:15.204Z,33.27
2018-07-21T08:14:15.817Z,33.72
2018-07-21T08:15:16.359Z,33.77
2018-07-21T08:16:16.936Z,33.49
2018-07-21T08:17:17.513Z,33.36
2018-07-21T08:18:18.093Z,33.28
2018-07-21T08:19:18.767Z,32.93
2018-07-21T08:20:19.348Z,32.51
2018-07-21T08:21:19.927Z,32.22
2018-07-21T08:22:20.517Z,31.96
2018-07-21T08:23:21.068Z,31.80
2018-07-21T08:24:21.651Z,31.40
2018-07-21T08:25:22.233Z,31.08
2018-07-21T08:26:22.812Z,30.81
2018-07-21T08:27:23.376Z,30.64
2018-07-21T08:28:23.951Z,30.18
2018-07-21T08:29:24.527Z,30.05
2018-07-21T08:30:25.099Z,30.00
2018-07-21T08:31:25.673Z,30.09
2018-07-21T08:32:26.247Z,29.71
2018-07-21T08:33:26.816Z,29.52
2018-07-21T08:34:27.392Z,29.52
2018-07-21T08:35:27.962Z,29.42
2018-07-21T08:36:28.537Z,29.44
2018-07-21T08:37:29.106Z,29.52
2018-07-21T08:38:29.686Z,29.54
2018-07-21T08:39:30.252Z,29.53
2018-07-21T08:40:30.824Z,29.63
2018-07-21T08:41:31.396Z,29.62
2018-07-21T08:42:31.968Z,29.52
2018-07-21T08:43:32.537Z,29.42
2018-07-21T08:44:33.100Z,29.39
2018-07-21T08:45:33.676Z,29.45
2018-07-21T08:46:34.245Z,29.47
2018-07-21T08:47:34.822Z,29.52
2018-07-21T08:48:35.421Z,29.44
2018-07-21T08:49:35.977Z,29.63
2018-07-21T08:50:36.532Z,29.62
2018-07-21T08:51:37.102Z,29.53
2018-07-21T08:52:37.689Z,29.60
2018-07-21T08:53:38.260Z,29.91
2018-07-21T08:54:38.832Z,30.08
2018-07-21T08:55:39.460Z,30.35
2018-07-21T08:56:40.007Z,30.46
2018-07-21T08:57:40.562Z,30.54
2018-07-21T08:58:41.130Z,30.54
2018-07-21T08:59:41.752Z,30.38
2018-07-21T09:00:42.323Z,30.21
2018-07-21T09:01:42.898Z,30.37
2018-07-21T09:02:43.474Z,30.62
2018-07-21T09:03:44.046Z,30.81
2018-07-21T09:04:44.624Z,31.15
2018-07-21T09:05:45.237Z,31.27
2018-07-21T09:06:45.773Z,31.47
2018-07-21T09:07:46.344Z,31.96
2018-07-21T09:08:46.947Z,32.06
2018-07-21T09:09:47.501Z,32.07
2018-07-21T09:10:48.074Z,32.47
2018-07-21T09:11:48.642Z,32.61
2018-07-21T09:12:49.214Z,32.67
2018-07-21T09:13:49.791Z,32.62
2018-07-21T09:14:50.363Z,32.73
2018-07-21T09:15:50.942Z,32.69
2018-07-21T09:16:51.519Z,32.95
2018-07-21T09:17:52.094Z,33.33
2018-07-21T09:18:52.672Z,33.37
2018-07-21T09:19:53.244Z,33.15
2018-07-21T09:20:53.823Z,33.38
2018-07-21T09:21:54.400Z,33.36
2018-07-21T09:22:54.984Z,33.36
2018-07-21T09:23:55.565Z,33.31
2018-07-21T09:24:56.141Z,33.41
2018-07-21T09:25:56.718Z,32.99
2018-07-21T09:26:57.294Z,33.17
2018-07-21T09:27:57.909Z,33.45
2018-07-21T09:28:58.446Z,33.43
2018-07-21T09:29:59.023Z,33.48
2018-07-21T09:30:59.602Z,33.46
2018-07-21T09:32:00.173Z,33.70
2018-07-21T09:33:00.754Z,34.08
2018-07-21T09:34:01.363Z,34.29
2018-07-21T09:35:01.906Z,34.29
2018-07-21T09:36:02.488Z,34.09
2018-07-21T09:37:03.054Z,33.93
2018-07-21T09:38:03.624Z,33.79
2018-07-21T09:39:04.207Z,33.83
2018-07-21T09:40:04.788Z,33.90
2018-07-21T09:41:05.363Z,34.11
2018-07-21T09:42:05.935Z,34.11
2018-07-21T09:43:06.513Z,34.05
2018-07-21T09:44:07.089Z,34.11
2018-07-21T09:45:07.668Z,34.11
2018-07-21T09:46:08.248Z,34.24
2018-07-21T09:47:08.821Z,34.32
2018-07-21T09:48:09.390Z,33.98
2018-07-21T09:49:09.987Z,33.98
2018-07-21T09:50:10.536Z,33.79
2018-07-21T09:51:11.114Z,33.46
2018-07-21T09:52:11.691Z,33.13
2018-07-21T09:53:12.270Z,33.30
2018-07-21T09:54:12.843Z,33.41
2018-07-21T09:55:13.425Z,33.45
2018-07-21T09:56:13.999Z,33.43
2018-07-21T09:57:14.573Z,33.64
2018-07-21T09:58:15.151Z,33.85
2018-07-21T09:59:15.731Z,34.01
2018-07-21T10:00:16.306Z,33.98
2018-07-21T10:01:16.885Z,34.08
2018-07-21T10:02:17.468Z,34.17
2018-07-21T10:03:18.052Z,34.14
2018-07-21T10:04:18.629Z,34.27
2018-07-21T10:05:19.201Z,34.24
2018-07-21T10:06:19.781Z,34.20
2018-07-21T10:07:20.362Z,34.29
2018-07-21T10:08:20.938Z,34.20
2018-07-21T10:09:21.512Z,34.09
2018-07-21T10:10:22.089Z,34.20
2018-07-21T10:11:22.671Z,34.17
2018-07-21T10:12:23.248Z,34.38
2018-07-21T10:13:23.828Z,34.38
2018-07-21T10:14:24.400Z,34.34
2018-07-21T10:15:25.034Z,34.35
2018-07-21T10:16:25.652Z,34.32
2018-07-21T10:17:26.222Z,34.42
2018-07-21T10:18:26.799Z,34.26
2018-07-21T10:19:27.376Z,34.13
2018-07-21T10:20:27.952Z,34.13
2018-07-21T10:21:28.527Z,34.01
2018-07-21T10:22:29.106Z,33.99
2018-07-21T10:23:29.685Z,34.14
2018-07-21T10:24:30.290Z,34.11
2018-07-21T10:25:30.850Z,33.98
2018-07-21T10:26:31.433Z,33.80
2018-07-21T10:27:32.002Z,33.72
2018-07-21T10:28:32.648Z,33.68
2018-07-21T10:29:33.157Z,33.63
2018-07-21T10:30:33.724Z,33.64
2018-07-21T10:31:34.302Z,33.67
2018-07-21T10:32:34.882Z,33.90
2018-07-21T10:33:35.541Z,34.16
2018-07-21T10:34:36.027Z,34.30
2018-07-21T10:35:36.602Z,34.39
2018-07-21T10:36:37.197Z,34.65
2018-07-21T10:37:37.755Z,34.56
2018-07-21T10:38:38.331Z,34.73
2018-07-21T10:39:38.899Z,34.89
2018-07-21T10:40:39.479Z,34.98
2018-07-21T10:41:40.056Z,35.18
2018-07-21T10:42:40.648Z,35.37
2018-07-21T10:43:41.205Z,35.36
2018-07-21T10:44:41.787Z,35.39
2018-07-21T10:45:42.357Z,35.36
2018-07-21T10:46:42.939Z,35.42
2018-07-21T10:47:43.512Z,35.14
2018-07-21T10:48:44.090Z,35.02
2018-07-21T10:49:44.669Z,34.92
2018-07-21T10:50:45.264Z,34.46
2018-07-21T10:51:45.823Z,34.39
2018-07-21T10:52:46.398Z,34.43
2018-07-21T10:53:46.979Z,34.73
2018-07-21T10:54:47.548Z,34.95
2018-07-21T10:55:48.134Z,35.17
2018-07-21T10:56:48.703Z,35.26
2018-07-21T10:57:49.285Z,35.51
2018-07-21T10:58:49.860Z,35.51
2018-07-21T10:59:50.437Z,35.62
2018-07-21T11:00:51.010Z,35.69
2018-07-21T11:01:51.583Z,35.44
2018-07-21T11:02:52.162Z,35.26
2018-07-21T11:03:52.794Z,35.39
2018-07-21T11:04:53.367Z,35.37
2018-07-21T11:05:53.940Z,35.28
2018-07-21T11:06:54.517Z,35.39
2018-07-21T11:07:55.095Z,35.58
2018-07-21T11:08:55.664Z,35.51
2018-07-21T11:09:56.232Z,35.50
2018-07-21T11:10:56.804Z,35.21
2018-07-21T11:11:57.377Z,35.18
2018-07-21T11:12:57.953Z,35.30
2018-07-21T11:13:58.537Z,35.51
2018-07-21T11:14:59.123Z,35.64
2018-07-21T11:15:59.694Z,35.37
2018-07-21T11:17:00.269Z,35.32
2018-07-21T11:18:00.844Z,35.39
2018-07-21T11:19:01.424Z,35.52
2018-07-21T11:20:02.003Z,35.39
2018-07-21T11:21:02.589Z,35.28
2018-07-21T11:22:03.172Z,35.03
2018-07-21T11:23:03.736Z,35.28
2018-07-21T11:24:04.297Z,35.47
2018-07-21T11:25:04.879Z,35.37
2018-07-21T11:26:05.457Z,35.44
2018-07-21T11:27:06.023Z,35.37
2018-07-21T11:28:06.606Z,35.57
2018-07-21T11:29:07.173Z,35.69
2018-07-21T11:30:07.740Z,35.98
2018-07-21T11:31:08.321Z,36.24
2018-07-21T11:32:08.896Z,36.43
2018-07-21T11:33:09.473Z,36.52
2018-07-21T11:34:10.048Z,36.45
2018-07-21T11:35:10.677Z,36.49
2018-07-21T11:36:11.465Z,36.50
2018-07-21T11:37:11.776Z,36.38
2018-07-21T11:38:12.370Z,36.71
2018-07-21T11:40:28.410Z,36.31
2018-07-21T11:41:28.970Z,36.39
2018-07-21T11:42:29.545Z,36.24
2018-07-21T11:43:30.122Z,36.34
2018-07-21T11:44:30.750Z,36.49
2018-07-21T11:45:31.272Z,36.52
2018-07-21T11:46:31.850Z,36.87
2018-07-21T11:47:32.423Z,37.05
2018-07-21T11:48:32.994Z,37.32
2018-07-21T11:49:33.583Z,37.55
2018-07-21T11:50:34.167Z,37.76
2018-07-21T11:51:34.743Z,38.03
2018-07-21T11:52:35.313Z,38.18
2018-07-21T11:53:35.890Z,38.22
2018-07-21T11:54:36.479Z,38.03
2018-07-21T11:55:37.039Z,38.04
2018-07-21T11:56:37.614Z,37.98
2018-07-21T11:57:38.190Z,37.62
2018-07-21T11:58:38.777Z,37.16
2018-07-21T11:59:39.349Z,37.17
2018-07-21T12:00:39.941Z,37.38
2018-07-21T12:01:40.505Z,37.62
2018-07-21T12:02:41.083Z,37.67
2018-07-21T12:03:41.653Z,37.69
2018-07-21T12:04:42.237Z,37.69
2018-07-21T12:05:42.824Z,37.64
2018-07-21T12:06:43.386Z,37.85
2018-07-21T12:07:43.968Z,37.86
2018-07-21T12:08:44.560Z,37.83
2018-07-21T12:09:45.124Z,37.98
2018-07-21T12:10:45.712Z,37.71
2018-07-21T12:11:46.284Z,37.76
2018-07-21T12:12:46.858Z,37.88
2018-07-21T12:13:47.435Z,38.08
2018-07-21T12:14:48.015Z,38.44
2018-07-21T12:15:48.597Z,38.82
2018-07-21T12:16:49.176Z,39.10
2018-07-21T12:17:49.753Z,38.99
2018-07-21T12:18:50.329Z,38.76
2018-07-21T12:19:50.914Z,39.10
2018-07-21T12:20:51.483Z,38.95
2018-07-21T12:21:52.051Z,38.57
2018-07-21T12:22:52.638Z,38.51
2018-07-21T12:23:53.204Z,38.30
2018-07-21T12:24:53.781Z,38.05
2018-07-21T12:25:54.363Z,38.27
2018-07-21T12:26:54.941Z,37.99
2018-07-21T12:27:55.517Z,38.30
2018-07-21T12:28:56.089Z,38.46
2018-07-21T12:29:56.671Z,38.37
2018-07-21T12:30:57.263Z,37.88
2018-07-21T12:31:57.827Z,37.73
2018-07-21T12:32:58.415Z,37.86
2018-07-21T12:33:58.996Z,38.22
2018-07-21T12:34:59.577Z,38.63
2018-07-21T12:36:00.151Z,39.12
2018-07-21T12:37:00.731Z,38.90
2018-07-21T12:38:01.305Z,38.90
2018-07-21T12:39:01.877Z,38.99
2018-07-21T12:40:02.465Z,39.02
2018-07-21T12:41:03.038Z,39.20
2018-07-21T12:42:03.615Z,39.37
2018-07-21T12:43:04.194Z,39.40
2018-07-21T12:44:04.779Z,39.14
2018-07-21T12:45:05.364Z,39.23
2018-07-21T12:46:05.964Z,39.23
2018-07-21T12:47:06.530Z,38.83
2018-07-21T12:48:07.102Z,38.48
2018-07-21T12:49:07.681Z,38.29
2018-07-21T12:50:08.262Z,38.59
2018-07-21T12:51:08.845Z,38.83
2018-07-21T12:52:09.410Z,39.15
2018-07-21T12:53:10.007Z,39.43
2018-07-21T12:54:10.623Z,39.20
2018-07-21T12:55:11.184Z,39.35
2018-07-21T12:56:11.757Z,39.81
2018-07-21T12:57:12.327Z,39.92
2018-07-21T12:58:12.907Z,39.92
2018-07-21T12:59:13.487Z,39.86
2018-07-21T13:00:14.137Z,39.59
2018-07-21T13:01:14.680Z,39.32